Notice: Undefined index: wrnPrintWarnings in /var/www/clients/client12/web25/web/weather28/europe/wrnWarningv3.php on line 26

Radar lluvias  rain snow radar


Visita nuestra red de sitios de meteo:

Template documentation
and downloads

And another site



No particular awareness of the weather is required.    There are no Weather-warnings

Informes METAR proximidad


Warning: A non-numeric value encountered in /var/www/clients/client12/web25/web/weather28/metar/metarDisplay.php on line 167
   
LEXJ - Santander, Spain
Distancia hasta la estación: ESE 6 km
Actualización: 22-10-2021 05:00
lluvia, Parcialmente nublado  
lluvia, Parcialmente nublado  
   Viento: SSW 11.1 km/h
Viento: SSW 11.1 km/h
Temperatura: 13°C
Punto de rocío: 11°C
Humedad: 88%
Baromètro: 1021 hPa
Nublado: Parcialmente nublado
Visibilidad: 8 km
detalles de la nube: Parcialmente Nublado 2700 ft,
Parcialmente nublado 3300 ft
LEXJ 220300Z AUTO 21006KT 180V240 8000 -RA SCT027 BKN033 13/11 Q1021
LEBB - Bilbao/Sondica, Spain
Distancia hasta la estación: ESE 80 km
Actualización: 22-10-2021 05:00
Parcialmente nublado  
Parcialmente nublado  
   Viento: NE 3.7 km/h
Viento: NE 3.7 km/h
Temperatura: 13°C
Punto de rocío: 11°C
Humedad: 88%
Baromètro: 1021 hPa
Nublado: Parcialmente nublado
Visibilidad: More than 10 km
detalles de la nube: Parcialmente Nublado 2600 ft,
Parcialmente nublado 4500 ft
LEBB 220300Z 04002KT 9999 SCT026 BKN045 13/11 Q1021 TEMPO 3000 RA
LEAS - Asturias/Aviles, Spain
Distancia hasta la estación: W 172 km
Actualización: 22-10-2021 05:00
Parcialmente nublado  
Parcialmente nublado  
   Viento: SW 9.3 km/h
Viento: SW 9.3 km/h
Temperatura: 12°C
Punto de rocío: 10°C
Humedad: 88%
Baromètro: 1022 hPa
Nublado: Parcialmente nublado
Visibilidad: More than 10 km
detalles de la nube: Parcialmente Nublado 2700 ft,
Parcialmente nublado 3200 ft,
Parcialmente nublado 5000 ft
LEAS 220300Z AUTO 23005KT 9999 SCT027 BKN032 BKN050 12/10 Q1022
LESO - San Sebastian/Fu, Spain
Distancia hasta la estación: E 169 km
Actualización: 22-10-2021 05:00
Parcialmente nublado  
Parcialmente nublado  
   Viento: SW 9.3 km/h
Viento: SW 9.3 km/h
Temperatura: 13°C
Punto de rocío: 13°C
Humedad: 100%
Baromètro: 1021 hPa
Nublado: Parcialmente nublado
Visibilidad: 9 km
detalles de la nube: Parcialmente Nublado 2600 ft,
Parcialmente nublado 3200 ft,
Parcialmente nublado 4000 ft
LESO 220300Z AUTO 23005KT 9000 SCT026 BKN032 BKN040 13/13 Q1021
LEVT - Vitoria, Spain
Distancia hasta la estación: ESE 114 km
Actualización: 22-10-2021 05:00
Parcialmente nublado  
Parcialmente nublado  
   Viento: WNW 1.9 km/h
Viento: WNW 1.9 km/h
Temperatura: 6°C
Punto de rocío: 5°C
Humedad: 93%
Baromètro: 1022 hPa
Nublado: Parcialmente nublado
Visibilidad: More than 10 km
detalles de la nube: Nubes dispersas 2000 ft,
Parcialmente Nublado 2500 ft,
Parcialmente nublado 3000 ft
LEVT 220300Z 30001KT 9999 FEW020 SCT025 BKN030 06/05 Q1022
LEZG - Zaragoza (mil/Ci, Spain
Distancia hasta la estación: SE 307 km
Actualización: 22-10-2021 05:00
Despejado  
Despejado  
   Viento: West 24.1 km/h
Viento: West 24.1 km/h
Temperatura: 12°C
Punto de rocío: 7°C
Humedad: 72%
Baromètro: 1019 hPa
Visibilidad: More than 10 km
detalles de la nube: Despejado
LEZG 220300Z 28013KT CAVOK 12/07 Q1019
LEMD - Madrid ,Spain
Distancia hasta la estación: S 334 km
Actualización: 22-10-2021 05:00
Parcialmente Nublado  
Parcialmente Nublado  
   Viento: NNE 9.3 km/h
Viento: NNE 9.3 km/h
Temperatura: 13°C
Punto de rocío: 7°C
Humedad: 67%
Baromètro: 1018 hPa
Nublado: Parcialmente Nublado
Visibilidad: More than 10 km
detalles de la nube: Parcialmente Nublado 6000 ft
LEMD 220300Z 03005KT 010V080 9999 SCT060 13/07 Q1018 NOSIG
  

Guión original por  Saratoga-weather.org Adaptado para la plantilla por  Weerstation Leuven

Obra sujeta a una Licencia de Creative Commons

RED DE ESTACIONES DE METEOCLIMATIC

Sello de calidad

ESCTB3900000039011A